Time;durP1;ratioP1;P1;durP2;ratioP2;P2;SDS_P1;SDS_P2;PMS_P1;PMS_P2;Temp;Humidity;BMP_temperature;BMP_pressure;BME280_temperature;BME280_humidity;BME280_pressure;Samples;Min_cycle;Max_cycle;Signal;HPM_P1;HPM_P2
2021/10/08 00:01:02;;;;;;;6.33;5.73;;;11.80;98.30;;;;;;5250318;22;20424;-84
2021/10/08 00:03:06;;;;;;;7.30;6.10;;;11.80;98.30;;;;;;5250432;22;20428;-84
2021/10/08 00:05:10;;;;;;;7.30;6.60;;;11.80;98.30;;;;;;5250553;22;20416;-84
2021/10/08 00:07:13;;;;;;;6.57;5.87;;;11.80;98.30;;;;;;5250320;22;20421;-84
2021/10/08 00:09:16;;;;;;;10.23;5.97;;;11.80;98.30;;;;;;5252404;22;20433;-84
2021/10/08 00:11:19;;;;;;;8.13;6.97;;;11.70;98.30;;;;;;5242828;22;20449;-84
2021/10/08 00:13:22;;;;;;;7.43;6.30;;;11.80;98.30;;;;;;5243299;22;20507;-84
2021/10/08 00:15:26;;;;;;;8.60;5.70;;;11.80;98.30;;;;;;5243227;22;20473;-84
2021/10/08 00:17:29;;;;;;;6.77;6.17;;;11.90;98.30;;;;;;5252232;22;20432;-83
2021/10/08 00:19:33;;;;;;;7.10;6.30;;;11.90;98.30;;;;;;5252638;22;20928;-84
2021/10/08 00:21:37;;;;;;;9.03;7.10;;;12.00;98.30;;;;;;5252341;22;20446;-84
2021/10/08 00:23:40;;;;;;;8.07;6.30;;;12.00;98.30;;;;;;5244344;22;20492;-84
2021/10/08 00:25:43;;;;;;;5.93;5.43;;;12.00;98.30;;;;;;5252088;22;20416;-84
2021/10/08 00:27:46;;;;;;;6.90;5.80;;;12.00;98.30;;;;;;5252139;22;20496;-83
2021/10/08 00:29:49;;;;;;;6.70;6.00;;;12.00;98.30;;;;;;5251725;22;20464;-84
2021/10/08 00:31:52;;;;;;;5.80;5.23;;;12.00;98.30;;;;;;5243179;22;20440;-84
2021/10/08 00:33:55;;;;;;;7.07;6.37;;;12.00;98.30;;;;;;5251588;22;20424;-84
2021/10/08 00:35:59;;;;;;;7.20;6.00;;;12.00;98.30;;;;;;5243207;22;20496;-84
2021/10/08 00:38:03;;;;;;;6.17;5.30;;;12.00;98.30;;;;;;5252049;22;20441;-84
2021/10/08 00:40:08;;;;;;;6.80;5.30;;;12.10;98.30;;;;;;5251742;22;20504;-83
2021/10/08 00:42:11;;;;;;;8.03;5.90;;;12.10;98.30;;;;;;5251420;22;20445;-83
2021/10/08 00:44:15;;;;;;;6.77;6.07;;;12.10;98.30;;;;;;5252216;22;20440;-84
2021/10/08 00:46:18;;;;;;;6.20;5.20;;;12.00;98.30;;;;;;5251903;22;20451;-83
2021/10/08 00:48:21;;;;;;;5.80;5.20;;;12.00;98.30;;;;;;5251906;22;20424;-83
2021/10/08 00:50:24;;;;;;;6.70;6.03;;;12.00;98.30;;;;;;5251889;22;20523;-84
2021/10/08 00:52:28;;;;;;;7.77;6.47;;;11.90;98.30;;;;;;5251676;22;20507;-84
2021/10/08 00:54:31;;;;;;;7.40;6.30;;;11.90;98.30;;;;;;5253786;22;20413;-85
2021/10/08 00:56:35;;;;;;;7.33;6.20;;;11.80;98.30;;;;;;5251880;22;20417;-84
2021/10/08 00:58:42;;;;;;;7.70;6.70;;;11.80;98.30;;;;;;5251952;22;20421;-84
2021/10/08 01:00:46;;;;;;;9.03;6.90;;;11.90;98.30;;;;;;5252553;22;20420;-84
2021/10/08 01:02:50;;;;;;;7.57;6.77;;;11.90;98.30;;;;;;5252213;22;20444;-83
2021/10/08 01:04:56;;;;;;;7.33;6.43;;;11.80;98.30;;;;;;5243757;22;20421;-83
2021/10/08 01:06:59;;;;;;;6.83;6.13;;;11.60;98.30;;;;;;5253222;22;20445;-84
2021/10/08 01:09:03;;;;;;;7.97;6.73;;;11.60;98.30;;;;;;5252983;22;20420;-84
2021/10/08 01:11:07;;;;;;;7.30;6.60;;;11.60;98.30;;;;;;5252292;22;20475;-83
2021/10/08 01:13:11;;;;;;;6.47;5.87;;;11.60;98.30;;;;;;5242936;22;20507;-83
2021/10/08 01:15:14;;;;;;;6.20;5.60;;;11.60;98.30;;;;;;5251997;22;20416;-84
2021/10/08 01:17:19;;;;;;;9.20;6.47;;;11.70;98.30;;;;;;5243174;22;20431;-83
2021/10/08 01:19:22;;;;;;;7.27;6.17;;;11.70;98.30;;;;;;5242674;22;20470;-84
2021/10/08 01:21:27;;;;;;;9.27;6.50;;;11.70;98.30;;;;;;5250932;22;20523;-83
2021/10/08 01:23:30;;;;;;;6.73;6.10;;;11.60;98.30;;;;;;5251649;22;20420;-84
2021/10/08 01:25:34;;;;;;;6.07;5.47;;;11.70;98.30;;;;;;5243009;22;20460;-84
2021/10/08 01:27:37;;;;;;;8.13;6.47;;;11.70;98.30;;;;;;5243053;22;20459;-83
2021/10/08 01:29:53;;;;;;;8.60;6.80;;;11.70;98.30;;;;;;5251344;22;20501;-83
2021/10/08 01:31:56;;;;;;;9.03;7.47;;;11.70;98.30;;;;;;5251320;22;20520;-83
2021/10/08 01:33:59;;;;;;;10.27;7.23;;;11.70;98.30;;;;;;5251105;22;20421;-84
2021/10/08 01:36:02;;;;;;;8.33;6.60;;;11.70;98.30;;;;;;5242738;22;20431;-84
2021/10/08 01:38:07;;;;;;;7.90;7.00;;;11.80;98.30;;;;;;5251654;22;20504;-83
2021/10/08 01:40:11;;;;;;;7.70;6.90;;;11.80;98.30;;;;;;5251000;22;20420;-83
2021/10/08 01:42:15;;;;;;;8.23;6.60;;;11.60;98.30;;;;;;5250612;22;20441;-83
2021/10/08 01:44:18;;;;;;;8.97;6.47;;;11.50;98.30;;;;;;5251389;22;20448;-83
2021/10/08 01:46:21;;;;;;;8.17;6.97;;;11.60;98.30;;;;;;5251355;22;20416;-83
2021/10/08 01:48:24;;;;;;;9.47;7.63;;;11.40;98.30;;;;;;5242851;22;20754;-83
2021/10/08 01:50:27;;;;;;;10.30;8.93;;;11.30;98.30;;;;;;5250957;22;20511;-83
2021/10/08 01:52:30;;;;;;;9.47;8.57;;;11.20;98.30;;;;;;5242515;22;20481;-84
2021/10/08 01:54:34;;;;;;;15.93;8.03;;;11.20;98.30;;;;;;5251584;22;20448;-83
2021/10/08 01:56:40;;;;;;;7.80;7.00;;;11.20;98.30;;;;;;5251120;22;20417;-84
2021/10/08 01:58:43;;;;;;;9.90;8.90;;;11.20;98.30;;;;;;5242929;22;20524;-83
2021/10/08 02:00:46;;;;;;;15.57;11.40;;;11.20;98.30;;;;;;5251348;22;20413;-83
2021/10/08 02:02:49;;;;;;;9.23;7.57;;;11.30;98.30;;;;;;5250916;22;20436;-83
2021/10/08 02:04:52;;;;;;;8.90;7.27;;;11.30;98.30;;;;;;5250971;22;20913;-83
2021/10/08 02:06:55;;;;;;;7.83;7.07;;;11.30;98.30;;;;;;5242552;22;20460;-83
2021/10/08 02:08:58;;;;;;;8.80;7.90;;;11.20;98.30;;;;;;5251337;22;20812;-83
2021/10/08 02:11:03;;;;;;;8.67;7.80;;;11.30;98.30;;;;;;5242430;22;21103;-84
2021/10/08 02:13:06;;;;;;;12.37;9.87;;;11.20;98.30;;;;;;5251085;22;20486;-84
2021/10/08 02:15:10;;;;;;;9.00;8.10;;;11.20;98.30;;;;;;5251161;22;20445;-83
2021/10/08 02:17:13;;;;;;;8.00;7.20;;;11.30;98.30;;;;;;5250797;22;20421;-83
2021/10/08 02:19:16;;;;;;;12.93;7.77;;;11.30;98.30;;;;;;5251039;22;20436;-83
2021/10/08 02:21:20;;;;;;;8.97;7.30;;;11.30;98.30;;;;;;5250632;22;20472;-83
2021/10/08 02:23:23;;;;;;;10.50;8.17;;;11.20;98.30;;;;;;5242575;22;20452;-83
2021/10/08 02:25:26;;;;;;;8.13;7.33;;;11.20;98.30;;;;;;5250868;22;20507;-84
2021/10/08 02:27:30;;;;;;;8.70;7.70;;;11.30;98.30;;;;;;5250958;22;20444;-83
2021/10/08 02:29:33;;;;;;;9.70;8.70;;;11.30;98.30;;;;;;5250890;22;20971;-83
2021/10/08 02:31:36;;;;;;;9.33;7.70;;;11.20;98.30;;;;;;5250280;22;20451;-84
2021/10/08 02:33:39;;;;;;;11.53;8.03;;;11.10;98.30;;;;;;5242604;22;20425;-83
2021/10/08 02:35:42;;;;;;;9.43;8.17;;;11.20;98.30;;;;;;5251311;22;20412;-83
2021/10/08 02:37:45;;;;;;;9.73;8.73;;;11.30;98.30;;;;;;5250982;22;20425;-83
2021/10/08 02:39:48;;;;;;;9.23;8.33;;;11.30;98.30;;;;;;5251247;22;20416;-83
2021/10/08 02:41:52;;;;;;;10.37;8.80;;;11.30;98.30;;;;;;5242174;22;20818;-83
2021/10/08 02:43:56;;;;;;;11.47;9.00;;;11.40;98.30;;;;;;5251027;22;20413;-84
2021/10/08 02:45:59;;;;;;;9.70;8.37;;;11.40;98.30;;;;;;5250593;22;20664;-83
2021/10/08 02:48:02;;;;;;;11.40;8.00;;;11.30;98.30;;;;;;5251076;22;20421;-84
2021/10/08 02:50:07;;;;;;;11.50;8.87;;;11.30;98.30;;;;;;5250930;22;20980;-83
2021/10/08 02:52:10;;;;;;;9.23;8.20;;;11.30;98.30;;;;;;5250752;22;20834;-83
2021/10/08 02:54:33;;;;;;;8.77;7.97;;;11.30;98.30;;;;;;5242489;22;20804;-83
2021/10/08 02:56:36;;;;;;;9.37;8.40;;;11.30;98.30;;;;;;5250805;22;20823;-83
2021/10/08 02:58:39;;;;;;;9.03;8.20;;;11.30;98.30;;;;;;5251229;22;20810;-83
2021/10/08 03:00:43;;;;;;;9.80;8.80;;;11.30;98.30;;;;;;5250735;22;20424;-83
2021/10/08 03:02:46;;;;;;;9.87;8.87;;;11.30;98.30;;;;;;5250482;22;20463;-84
2021/10/08 03:04:49;;;;;;;11.60;9.60;;;11.40;98.30;;;;;;5242548;22;20504;-83
2021/10/08 03:06:52;;;;;;;11.47;9.10;;;11.40;98.30;;;;;;5242533;22;20512;-83
2021/10/08 03:08:56;;;;;;;11.13;8.93;;;11.40;98.30;;;;;;5250698;22;20503;-84
2021/10/08 03:10:59;;;;;;;11.07;8.80;;;11.40;98.30;;;;;;5250888;22;20511;-83
2021/10/08 03:13:02;;;;;;;10.40;9.17;;;11.40;98.30;;;;;;5242423;22;20727;-83
2021/10/08 03:15:07;;;;;;;9.67;8.67;;;11.30;98.30;;;;;;5242538;22;20459;-83
2021/10/08 03:17:11;;;;;;;11.07;8.33;;;11.30;98.30;;;;;;5251307;22;20420;-83
2021/10/08 03:19:14;;;;;;;11.17;9.47;;;11.20;98.30;;;;;;5250701;22;20459;-83
2021/10/08 03:21:17;;;;;;;9.90;8.70;;;11.30;98.30;;;;;;5242077;22;20445;-83
2021/10/08 03:23:20;;;;;;;9.20;8.20;;;11.30;98.30;;;;;;5250897;22;20466;-83
2021/10/08 03:25:23;;;;;;;9.40;8.20;;;11.20;98.30;;;;;;5242746;22;20425;-84
2021/10/08 03:27:26;;;;;;;11.87;8.13;;;11.30;98.30;;;;;;5251320;22;20427;-83
2021/10/08 03:29:29;;;;;;;9.03;7.93;;;11.30;98.30;;;;;;5250811;22;20500;-83
2021/10/08 03:31:33;;;;;;;10.67;8.63;;;11.20;98.30;;;;;;5250832;22;20448;-83
2021/10/08 03:33:37;;;;;;;9.33;8.43;;;11.20;98.30;;;;;;5251291;22;20440;-83
2021/10/08 03:35:42;;;;;;;10.47;9.47;;;11.20;98.30;;;;;;5251297;22;20444;-84
2021/10/08 03:37:52;;;;;;;14.00;10.60;;;11.20;98.30;;;;;;5243969;22;20509;-83
2021/10/08 03:39:55;;;;;;;11.50;10.33;;;11.20;98.30;;;;;;5252011;22;20493;-83
2021/10/08 03:41:58;;;;;;;11.17;9.97;;;11.20;98.30;;;;;;5251463;22;20441;-83
2021/10/08 03:44:03;;;;;;;15.23;10.90;;;11.20;98.30;;;;;;5258902;22;20483;-84
2021/10/08 03:46:08;;;;;;;14.30;10.80;;;11.10;98.30;;;;;;5266729;22;20401;-83
2021/10/08 03:48:20;;;;;;;15.10;11.03;;;11.20;98.30;;;;;;5271216;22;20398;-84
2021/10/08 03:50:25;;;;;;;9.80;8.80;;;11.20;98.30;;;;;;5261782;22;20485;-83
2021/10/08 03:52:31;;;;;;;9.90;8.90;;;11.20;98.30;;;;;;5259486;22;20465;-84
2021/10/08 03:54:34;;;;;;;11.33;8.27;;;11.20;98.30;;;;;;5253679;22;20416;-84
2021/10/08 03:56:37;;;;;;;9.80;8.50;;;11.20;98.30;;;;;;5254067;22;20508;-83
2021/10/08 03:58:45;;;;;;;14.80;9.10;;;11.20;98.30;;;;;;5254050;22;20423;-84
2021/10/08 04:00:48;;;;;;;11.20;9.60;;;11.20;98.30;;;;;;5254215;22;20902;-84
2021/10/08 04:02:51;;;;;;;12.33;10.80;;;11.10;98.30;;;;;;5246585;22;20461;-82
2021/10/08 04:04:55;;;;;;;11.50;10.30;;;11.10;98.30;;;;;;5247305;22;20479;-83
2021/10/08 04:07:01;;;;;;;16.03;9.70;;;11.10;98.30;;;;;;5267326;22;20421;-84
2021/10/08 04:09:06;;;;;;;11.10;9.60;;;11.10;98.30;;;;;;5268553;22;20428;-85
2021/10/08 04:11:10;;;;;;;12.30;9.13;;;11.10;98.30;;;;;;5270522;22;20420;-84
2021/10/08 04:13:13;;;;;;;10.93;9.70;;;11.10;98.30;;;;;;5270851;22;20460;-84
2021/10/08 04:15:16;;;;;;;11.73;10.30;;;11.10;98.30;;;;;;5270096;22;20420;-83
2021/10/08 04:17:19;;;;;;;11.83;10.17;;;11.20;98.30;;;;;;5261615;22;20413;-83
2021/10/08 04:19:22;;;;;;;11.73;9.90;;;11.20;98.30;;;;;;5253608;22;20455;-83
2021/10/08 12:35:23;;;;;;;9.43;8.63;;;28.40;76.80;;;;;;5217167;22;20907;-83
2021/10/08 12:37:56;;;;;;;8.10;7.40;;;28.70;75.20;;;;;;5215401;22;20906;-83
2021/10/08 12:43:24;;;;;;;9.03;8.33;;;29.00;74.80;;;;;;5216554;22;20467;-84
2021/10/08 12:46:00;;;;;;;9.50;8.70;;;29.30;74.30;;;;;;5191001;22;20477;-84
2021/10/08 12:48:34;;;;;;;9.73;8.93;;;29.30;73.60;;;;;;5226146;22;20421;-84
2021/10/08 12:50:42;;;;;;;9.90;9.10;;;29.90;72.50;;;;;;5185813;22;20427;-84
2021/10/08 13:09:14;;;;;;;8.67;7.93;;;28.80;74.40;;;;;;5080056;22;20450;-83
2021/10/08 13:11:36;;;;;;;9.00;8.30;;;29.40;72.80;;;;;;5215980;22;20444;-83
2021/10/08 13:13:52;;;;;;;8.83;8.13;;;29.50;73.30;;;;;;5225765;22;20445;-83
2021/10/08 13:16:01;;;;;;;8.40;7.53;;;29.70;73.00;;;;;;5225652;22;20504;-84
2021/10/08 13:29:52;;;;;;;9.93;9.20;;;29.50;73.10;;;;;;5215651;22;20474;-83
2021/10/08 13:39:06;;;;;;;11.15;10.15;;;29.30;74.60;;;;;;5156738;23;20444;-84
2021/10/08 13:47:23;;;;;;;9.87;8.97;;;28.80;75.50;;;;;;5121652;23;21104;-83
2021/10/08 13:49:29;;;;;;;9.80;8.97;;;29.70;73.50;;;;;;5171399;23;20423;-83
2021/10/08 13:51:50;;;;;;;9.60;8.80;;;29.60;74.20;;;;;;5171176;23;20427;-83
2021/10/08 13:54:06;;;;;;;9.40;8.40;;;29.40;73.90;;;;;;5163401;23;20979;-83
2021/10/08 13:56:12;;;;;;;9.43;8.73;;;29.70;73.50;;;;;;5172207;23;20422;-84
2021/10/08 14:12:59;;;;;;;14.80;13.50;;;26.20;81.10;;;;;;5128668;23;20457;-83
2021/10/08 14:15:06;;;;;;;14.00;12.80;;;25.60;83.10;;;;;;5141323;23;20428;-83
2021/10/08 14:17:27;;;;;;;13.87;12.67;;;26.20;83.20;;;;;;5140439;23;20802;-83
2021/10/08 14:35:00;;;;;;;18.60;17.00;;;24.70;86.50;;;;;;5095930;23;21257;-83
2021/10/08 14:37:08;;;;;;;17.23;15.73;;;25.00;85.20;;;;;;5171475;23;20428;-83
2021/10/08 14:41:51;;;;;;;22.37;20.37;;;23.00;89.90;;;;;;5172005;23;20446;-83
2021/10/08 14:47:07;;;;;;;15.47;14.07;;;23.50;88.40;;;;;;5159061;23;20452;-83
2021/10/08 14:49:43;;;;;;;14.70;13.30;;;22.80;89.50;;;;;;5162605;23;20432;-83
2021/10/08 14:52:33;;;;;;;14.60;13.30;;;22.00;91.60;;;;;;5163786;23;20444;-83
2021/10/08 14:54:48;;;;;;;15.30;14.00;;;21.00;94.60;;;;;;5172359;23;20447;-83
2021/10/08 14:57:12;;;;;;;14.97;13.57;;;20.00;98.20;;;;;;5172490;23;20423;-83
2021/10/08 15:08:52;;;;;;;16.30;14.00;;;17.50;98.30;;;;;;5148225;23;20416;-83
2021/10/08 15:11:20;;;;;;;20.20;16.63;;;16.70;98.30;;;;;;5155112;23;20408;-83
2021/10/08 15:13:57;;;;;;;16.97;14.53;;;16.50;98.30;;;;;;5158374;23;20447;-83
2021/10/08 15:17:09;;;;;;;19.47;16.23;;;16.20;98.30;;;;;;5158221;23;20435;-82
2021/10/08 16:37:41;;;;;;;22.57;15.40;;;16.20;98.30;;;;;;5171162;22;20952;-83
2021/10/08 20:20:04;;;;;;;33.10;24.03;;;14.10;98.30;;;;;;5018672;23;20951;-84
2021/10/08 20:40:41;;;;;;;27.50;20.40;;;14.10;98.30;;;;;;4889604;24;20461;-84
2021/10/08 20:43:08;;;;;;;27.60;19.87;;;14.10;98.30;;;;;;4957472;24;21080;-84
